Terminal Aerodrome Forecast
Issued by NWS Billings, MT

Home | Current Version | Previous Version | Graphics & Text | Print | Product List | Glossary On
Versions: 1 2 3 4 5 6 7 8 9 10 11 12 13 14 15 16 17 18 19 20 21 22 23 24 25 26 27 28
000
FTUS45 KBYZ 092025 AAA
TAFMLS
TAF AMD
KMLS 092025Z 0920/1018 04007KT P6SM VCSH OVC050
      TEMPO 0920/0922 2SM -SN SCT025 OVC050
     FM100000 08010KT P6SM OVC060
     FM101200 10008KT P6SM SCT020 OVC035=

USA.gov is the U.S. government's official web portal to all federal, state and local government web resources and services.